createdAt,value
2023-05-16T00:00:10.878Z,97718.25
2023-05-16T00:02:40.732Z,97712.88
2023-05-16T00:05:15.161Z,97714.72
2023-05-16T00:07:46.338Z,97710.16
2023-05-16T00:10:15.018Z,97705.81
2023-05-16T00:13:26.720Z,97707.66
2023-05-16T00:15:55.495Z,97703.09
2023-05-16T00:18:26.175Z,97710.34
2023-05-16T00:20:55.532Z,97710.34
2023-05-16T00:23:25.653Z,97705.81
2023-05-16T00:25:54.054Z,97703.09
2023-05-16T00:28:22.433Z,97707.66
2023-05-16T00:30:50.887Z,97713.03
2023-05-16T00:33:19.380Z,97717.59
2023-05-16T00:35:47.885Z,97713.03
2023-05-16T00:38:16.332Z,97709.53
2023-05-16T00:40:46.717Z,97712.22
2023-05-16T00:43:15.203Z,97717.59
2023-05-16T00:45:44.137Z,97716.78
2023-05-16T00:48:13.482Z,97715.94
2023-05-16T00:50:42.169Z,97719.66
2023-05-16T00:53:10.551Z,97718.66
2023-05-16T00:55:39.332Z,97710.56
2023-05-16T00:58:09.088Z,97714.28
2023-05-16T01:00:37.673Z,97710.56
2023-05-16T01:03:06.777Z,97709.72
2023-05-16T01:05:35.346Z,97709.72
2023-05-16T01:08:03.838Z,97703.50
2023-05-16T01:10:37.368Z,97708.88
2023-05-16T01:13:13.472Z,97715.31
2023-05-16T01:15:46.995Z,97710.75
2023-05-16T01:18:21.504Z,97712.63
2023-05-16T01:20:55.745Z,97701.84
2023-05-16T01:23:38.535Z,97707.25
2023-05-16T01:26:19.752Z,97700.19
2023-05-16T01:28:48.428Z,97701.84
2023-05-16T01:31:17.713Z,97697.47
2023-05-16T01:33:46.284Z,97698.34
2023-05-16T01:36:21.555Z,97702.69
2023-05-16T01:39:04.678Z,97694.78
2023-05-16T01:41:42.331Z,97702.88
2023-05-16T01:44:19.993Z,97701.03
2023-05-16T01:46:49.485Z,97705.56
2023-05-16T01:49:21.526Z,97701.22
2023-05-16T01:51:52.931Z,97701.22
2023-05-16T01:54:21.689Z,97698.53
2023-05-16T01:56:53.858Z,97698.53
2023-05-16T01:59:23.185Z,97697.47
2023-05-16T02:01:52.068Z,97703.09
2023-05-16T02:04:20.840Z,97703.09
2023-05-16T02:06:49.441Z,97692.31
2023-05-16T02:09:17.981Z,97700.41
2023-05-16T02:11:47.223Z,97697.69
2023-05-16T02:14:16.932Z,97699.56
2023-05-16T02:16:45.520Z,97702.25
2023-05-16T02:19:14.176Z,97702.25
2023-05-16T02:21:42.646Z,97708.66
2023-05-16T02:24:11.295Z,97709.47
2023-05-16T02:26:39.645Z,97711.34
2023-05-16T02:29:08.234Z,97712.38
2023-05-16T02:31:38.596Z,97713.03
2023-05-16T02:34:07.453Z,97710.50
2023-05-16T02:36:36.195Z,97715.91
2023-05-16T02:39:05.139Z,97716.72
2023-05-16T02:41:33.498Z,97711.34
2023-05-16T02:44:02.057Z,97717.53
2023-05-16T02:46:31.653Z,97721.28
2023-05-16T02:49:01.819Z,97715.91
2023-05-16T02:51:30.461Z,97731.22
2023-05-16T02:54:00.043Z,97723.97
2023-05-16T02:56:28.882Z,97722.31
2023-05-16T02:58:57.316Z,97716.13
2023-05-16T03:01:25.883Z,97712.38
2023-05-16T03:03:54.357Z,97718.81
2023-05-16T03:06:24.160Z,97716.94
2023-05-16T03:08:52.698Z,97718.81
2023-05-16T03:11:22.981Z,97718.81
2023-05-16T03:13:51.627Z,97711.75
2023-05-16T03:16:20.027Z,97724.19
2023-05-16T03:18:48.515Z,97726.88
2023-05-16T03:21:17.052Z,97724.19
2023-05-16T03:23:46.827Z,97729.56
2023-05-16T03:26:15.367Z,97728.72
2023-05-16T03:28:43.961Z,97734.09
2023-05-16T03:31:12.490Z,97739.47
2023-05-16T03:33:42.400Z,97736.78
2023-05-16T03:36:13.605Z,97748.41
2023-05-16T03:38:41.930Z,97748.41
2023-05-16T03:41:11.699Z,97749.41
2023-05-16T03:43:40.368Z,97750.22
2023-05-16T03:46:08.865Z,97746.72
2023-05-16T03:48:37.439Z,97747.53
2023-05-16T03:51:06.245Z,97750.22
2023-05-16T03:53:34.630Z,97755.63
2023-05-16T03:56:04.245Z,97748.41
2023-05-16T03:58:34.080Z,97746.53
2023-05-16T04:01:02.820Z,97762.69
2023-05-16T04:03:31.521Z,97751.09
2023-05-16T04:05:59.927Z,97752.75
2023-05-16T04:08:28.774Z,97755.44
2023-05-16T04:10:57.184Z,97752.75
2023-05-16T04:13:25.800Z,97744.66
2023-05-16T04:15:55.605Z,97749.22
2023-05-16T04:18:24.653Z,97754.41
2023-05-16T04:20:53.029Z,97760.59
2023-05-16T04:23:21.432Z,97758.75
2023-05-16T04:25:50.888Z,97765.16
2023-05-16T04:28:19.389Z,97765.97
2023-05-16T04:30:48.890Z,97773.88
2023-05-16T04:33:18.878Z,97788.38
2023-05-16T04:35:47.379Z,97799.75
2023-05-16T04:38:15.939Z,97800.78
2023-05-16T04:40:44.338Z,97794.34
2023-05-16T04:43:13.662Z,97794.34
2023-05-16T04:45:45.520Z,97792.72
2023-05-16T04:48:14.125Z,97803.28
2023-05-16T04:50:44.072Z,97806.81
2023-05-16T04:53:12.452Z,97820.25
2023-05-16T04:55:41.135Z,97820.03
2023-05-16T04:58:09.524Z,97818.41
2023-05-16T05:00:38.246Z,97811.97
2023-05-16T05:03:06.816Z,97816.53
2023-05-16T05:05:35.708Z,97814.66
2023-05-16T05:08:06.633Z,97814.47
2023-05-16T05:10:35.200Z,97814.66
2023-05-16T05:13:03.680Z,97827.13
2023-05-16T05:15:32.415Z,97821.50
2023-05-16T05:18:00.879Z,97825.88
2023-05-16T05:20:29.429Z,97821.97
2023-05-16T05:22:58.013Z,97830.88
2023-05-16T05:25:28.286Z,97826.13
2023-05-16T05:27:57.032Z,97826.75
2023-05-16T05:30:25.932Z,97841.44
2023-05-16T05:32:55.176Z,97833.34
2023-05-16T05:35:23.542Z,97827.78
2023-05-16T05:37:51.955Z,97821.59
2023-05-16T05:40:20.690Z,97823.38
2023-05-16T05:42:50.513Z,97814.88
2023-05-16T05:45:19.244Z,97820.25
2023-05-16T05:47:47.601Z,97830.38
2023-05-16T05:50:16.851Z,97824.50
2023-05-16T05:52:45.422Z,97825.31
2023-05-16T05:55:13.822Z,97828.72
2023-05-16T05:57:42.435Z,97814.88
2023-05-16T06:00:14.129Z,97829.97
2023-05-16T06:02:42.928Z,97838.69
2023-05-16T06:05:11.803Z,97838.53
2023-05-16T06:07:40.432Z,97844.91
2023-05-16T06:10:10.511Z,97841.41
2023-05-16T06:12:39.152Z,97848.66
2023-05-16T06:15:11.457Z,97848.66
2023-05-16T06:17:42.263Z,97841.56
2023-05-16T06:20:11.950Z,97840.34
2023-05-16T06:22:40.336Z,97842.22
2023-05-16T06:25:10.104Z,97846.38
2023-05-16T06:27:38.767Z,97840.19
2023-05-16T06:30:09.985Z,97841.44
2023-05-16T06:32:38.895Z,97838.94
2023-05-16T06:35:12.166Z,97841.66
2023-05-16T06:37:42.960Z,97845.34
2023-05-16T06:40:13.144Z,97845.56
2023-05-16T06:42:41.786Z,97845.56
2023-05-16T06:45:11.827Z,97844.72
2023-05-16T06:47:40.341Z,97843.69
2023-05-16T06:50:11.793Z,97834.97
2023-05-16T06:52:40.259Z,97845.56
2023-05-16T06:55:10.125Z,97833.84
2023-05-16T06:57:38.620Z,97831.56
2023-05-16T07:00:09.960Z,97834.63
2023-05-16T07:02:39.065Z,97848.06
2023-05-16T07:05:10.655Z,97836.31
2023-05-16T07:07:39.180Z,97849.75
2023-05-16T07:10:08.755Z,97837.94
2023-05-16T07:12:38.575Z,97847.56
2023-05-16T07:15:08.942Z,97842.38
2023-05-16T07:17:37.772Z,97847.06
2023-05-16T07:20:08.307Z,97850.16
2023-05-16T07:22:38.081Z,97858.59
2023-05-16T07:25:12.704Z,97863.13
2023-05-16T07:27:44.751Z,97856.91
2023-05-16T07:30:15.142Z,97866.03
2023-05-16T07:32:43.768Z,97864.00
2023-05-16T07:35:15.318Z,97864.00
2023-05-16T07:37:45.082Z,97869.94
2023-05-16T07:40:14.962Z,97870.63
2023-05-16T07:42:43.393Z,97870.25
2023-05-16T07:45:11.984Z,97882.47
2023-05-16T07:47:40.935Z,97880.69
2023-05-16T07:50:10.831Z,97897.59
2023-05-16T07:52:39.410Z,97904.22
2023-05-16T07:55:11.140Z,97903.00
2023-05-16T07:57:39.817Z,97909.25
2023-05-16T08:00:10.213Z,97925.00
2023-05-16T08:02:38.801Z,97921.56
2023-05-16T08:05:09.618Z,97927.91
2023-05-16T08:07:38.129Z,97921.03
2023-05-16T08:10:12.557Z,97924.81
2023-05-16T08:12:41.851Z,97928.59
2023-05-16T08:15:11.565Z,97932.72
2023-05-16T08:17:40.085Z,97921.31
2023-05-16T08:20:09.832Z,97918.34
2023-05-16T08:22:38.336Z,97922.66
2023-05-16T08:25:09.524Z,97930.72
2023-05-16T08:27:38.048Z,97932.78
2023-05-16T08:30:08.377Z,97916.44
2023-05-16T08:32:37.420Z,97936.94
2023-05-16T08:35:07.107Z,97928.22
2023-05-16T08:37:36.204Z,97922.00
2023-05-16T08:40:10.219Z,97932.13
2023-05-16T08:42:40.245Z,97929.13
2023-05-16T08:45:09.969Z,97925.13
2023-05-16T08:47:38.695Z,97923.22
2023-05-16T08:50:09.860Z,97915.84
2023-05-16T08:52:40.560Z,97906.13
2023-05-16T08:55:11.644Z,97916.75
2023-05-16T08:57:42.122Z,97914.31
2023-05-16T09:00:13.140Z,97904.34
2023-05-16T09:02:41.969Z,97912.31
2023-05-16T09:05:12.974Z,97918.78
2023-05-16T09:07:41.760Z,97918.63
2023-05-16T09:10:11.530Z,97913.63
2023-05-16T09:12:42.364Z,97928.78
2023-05-16T09:15:11.731Z,97928.41
2023-05-16T09:17:44.372Z,97929.25
2023-05-16T09:20:14.767Z,97927.56
2023-05-16T09:22:52.025Z,97918.88
2023-05-16T09:25:29.479Z,97913.66
2023-05-16T09:28:01.581Z,97911.19
2023-05-16T09:30:31.896Z,97909.31
2023-05-16T09:33:00.610Z,97912.00
2023-05-16T09:38:00.525Z,97924.81
2023-05-16T09:40:28.926Z,97916.78
2023-05-16T09:43:06.042Z,97919.03
2023-05-16T09:45:34.795Z,97919.81
2023-05-16T09:48:05.912Z,97918.78
2023-05-16T09:50:35.399Z,97916.56
2023-05-16T09:53:04.180Z,97920.34
2023-05-16T09:55:33.117Z,97915.53
2023-05-16T09:58:01.755Z,97925.06
2023-05-16T10:00:33.342Z,97923.03
2023-05-16T10:03:05.776Z,97915.56
2023-05-16T10:05:34.927Z,97920.91
2023-05-16T10:08:04.838Z,97915.72
2023-05-16T10:10:35.862Z,97911.63
2023-05-16T10:13:04.692Z,97913.28
2023-05-16T10:15:36.763Z,97904.69
2023-05-16T10:18:08.394Z,97903.22
2023-05-16T10:20:36.893Z,97911.09
2023-05-16T10:23:05.320Z,97910.06
2023-05-16T10:25:36.183Z,97915.72
2023-05-16T10:28:04.987Z,97908.66
2023-05-16T10:30:35.810Z,97901.25
2023-05-16T10:33:04.510Z,97903.09
2023-05-16T10:35:33.262Z,97905.59
2023-05-16T10:38:01.876Z,97907.63
2023-05-16T10:40:30.310Z,97902.72
2023-05-16T10:42:59.135Z,97901.50
2023-05-16T10:45:28.048Z,97904.75
2023-05-16T10:47:59.840Z,97905.59
2023-05-16T10:50:36.033Z,97908.94
2023-05-16T10:53:19.850Z,97904.56
2023-05-16T10:55:52.592Z,97903.53
2023-05-16T10:58:25.722Z,97893.59
2023-05-16T11:01:20.688Z,97890.91
2023-05-16T11:04:11.299Z,97883.41
2023-05-16T11:06:48.328Z,97890.28
2023-05-16T11:09:23.574Z,97902.50
2023-05-16T11:12:00.777Z,97896.81
2023-05-16T11:14:32.429Z,97890.38
2023-05-16T11:17:10.109Z,97883.13
2023-05-16T11:19:44.866Z,97891.81
2023-05-16T11:22:31.779Z,97875.84
2023-05-16T11:25:02.971Z,97877.53
2023-05-16T11:27:32.267Z,97874.19
2023-05-16T11:30:04.625Z,97872.16
2023-05-16T11:32:35.266Z,97864.06
2023-05-16T11:35:05.944Z,97873.97
2023-05-16T11:37:34.395Z,97870.03
2023-05-16T11:40:03.654Z,97866.94
2023-05-16T11:42:35.832Z,97866.50
2023-05-16T11:45:08.820Z,97872.50
2023-05-16T11:47:39.155Z,97864.25
2023-05-16T11:50:13.081Z,97872.72
2023-05-16T11:52:41.687Z,97867.53
2023-05-16T11:55:11.936Z,97869.19
2023-05-16T11:57:42.147Z,97870.28
2023-05-16T12:00:17.903Z,97869.06
2023-05-16T12:02:47.996Z,97864.66
2023-05-16T12:05:18.976Z,97870.84
2023-05-16T12:07:47.550Z,97872.75
2023-05-16T12:10:16.975Z,97870.13
2023-05-16T12:12:46.764Z,97868.41
2023-05-16T12:15:17.908Z,97872.50
2023-05-16T12:17:46.668Z,97868.56
2023-05-16T12:20:16.821Z,97868.56
2023-05-16T12:22:47.174Z,97863.84
2023-05-16T12:25:34.016Z,97860.66
2023-05-16T12:28:03.756Z,97860.47
2023-05-16T12:30:33.437Z,97854.47
2023-05-16T12:33:06.992Z,97863.97
2023-05-16T12:35:37.799Z,97864.56
2023-05-16T12:38:07.832Z,97857.16
2023-05-16T12:40:38.294Z,97850.50
2023-05-16T12:43:08.841Z,97853.81
2023-05-16T12:45:37.241Z,97849.91
2023-05-16T12:48:14.217Z,97846.59
2023-05-16T12:50:42.884Z,97839.34
2023-05-16T12:53:14.631Z,97837.66
2023-05-16T12:55:43.288Z,97836.00
2023-05-16T12:58:12.189Z,97828.13
2023-05-16T13:00:40.733Z,97836.84
2023-05-16T13:03:09.646Z,97833.25
2023-05-16T13:05:38.178Z,97836.00
2023-05-16T13:08:07.519Z,97829.41
2023-05-16T13:10:37.434Z,97831.69
2023-05-16T13:13:05.854Z,97837.22
2023-05-16T13:15:34.449Z,97831.66
2023-05-16T13:18:03.206Z,97827.88
2023-05-16T13:20:31.652Z,97828.59
2023-05-16T13:23:00.240Z,97827.50
2023-05-16T13:25:28.901Z,97823.13
2023-05-16T13:27:58.922Z,97811.88
2023-05-16T13:30:29.027Z,97817.41
2023-05-16T13:32:59.296Z,97815.53
2023-05-16T13:35:28.285Z,97812.44
2023-05-16T13:37:56.927Z,97806.59
2023-05-16T13:40:25.526Z,97814.09
2023-05-16T13:42:54.022Z,97806.69
2023-05-16T13:45:23.982Z,97807.72
2023-05-16T13:47:52.677Z,97813.03
2023-05-16T13:50:21.642Z,97818.22
2023-05-16T13:52:50.080Z,97813.84
2023-05-16T13:55:19.870Z,97810.31
2023-05-16T13:57:48.891Z,97815.53
2023-05-16T14:00:44.397Z,97809.50
2023-05-16T14:03:09.479Z,97815.53
2023-05-16T14:05:38.183Z,97810.97
2023-05-16T14:08:07.966Z,97815.88
2023-05-16T14:10:36.703Z,97798.28
2023-05-16T14:13:05.235Z,97811.13
2023-05-16T14:15:34.015Z,97803.22
2023-05-16T14:18:05.147Z,97814.81
2023-05-16T14:20:35.094Z,97818.97
2023-05-16T14:23:03.963Z,97819.63
2023-05-16T14:25:32.390Z,97826.66
2023-05-16T14:28:00.860Z,97826.47
2023-05-16T14:30:29.608Z,97824.59
2023-05-16T14:33:00.382Z,97822.94
2023-05-16T14:35:29.708Z,97829.16
2023-05-16T14:37:59.791Z,97823.13
2023-05-16T14:40:28.235Z,97828.09
2023-05-16T14:42:56.715Z,97836.16
2023-05-16T14:45:25.561Z,97844.47
2023-05-16T14:47:54.504Z,97850.03
2023-05-16T14:50:23.485Z,97852.94
2023-05-16T14:52:53.180Z,97857.69
2023-05-16T14:55:24.057Z,97871.38
2023-05-16T14:57:59.017Z,97860.88
2023-05-16T15:00:28.910Z,97863.19
2023-05-16T15:02:57.725Z,97865.22
2023-05-16T15:05:26.484Z,97869.97
2023-05-16T15:07:55.223Z,97871.66
2023-05-16T15:10:25.335Z,97867.09
2023-05-16T15:12:54.655Z,97868.75
2023-05-16T15:15:23.107Z,97873.28
2023-05-16T15:17:51.671Z,97878.28
2023-05-16T15:20:22.523Z,97883.66
2023-05-16T15:22:51.375Z,97887.56
2023-05-16T15:25:21.002Z,97892.78
2023-05-16T15:27:51.253Z,97888.22
2023-05-16T15:30:19.799Z,97885.72
2023-05-16T15:32:48.930Z,97868.94
2023-05-16T15:35:17.508Z,97866.88
2023-05-16T15:37:46.136Z,97859.44
2023-05-16T15:40:15.537Z,97867.72
2023-05-16T15:42:44.984Z,97871.66
2023-05-16T15:45:15.087Z,97868.94
2023-05-16T15:47:43.619Z,97870.41
2023-05-16T15:50:13.692Z,97867.91
2023-05-16T15:52:42.271Z,97868.56
2023-05-16T15:55:12.691Z,97872.25
2023-05-16T15:57:42.251Z,97875.81
2023-05-16T16:00:12.420Z,97871.03
2023-05-16T16:02:45.029Z,97865.66
2023-05-16T16:05:13.634Z,97872.72
2023-05-16T16:07:42.091Z,97867.97
2023-05-16T16:10:12.739Z,97870.22
2023-05-16T16:12:41.339Z,97868.75
2023-05-16T16:15:12.266Z,97872.47
2023-05-16T16:17:42.276Z,97864.56
2023-05-16T16:20:12.556Z,97871.66
2023-05-16T16:22:41.160Z,97873.28
2023-05-16T16:25:10.304Z,97869.19
2023-05-16T16:27:38.793Z,97872.91
2023-05-16T16:30:09.662Z,97869.19
2023-05-16T16:32:38.450Z,97874.13
2023-05-16T16:35:09.693Z,97872.25
2023-05-16T16:37:38.219Z,97879.97
2023-05-16T16:40:10.391Z,97879.31
2023-05-16T16:42:40.549Z,97871.25
2023-05-16T16:45:10.765Z,97871.25
2023-05-16T16:47:40.488Z,97874.78
2023-05-16T16:50:13.010Z,97878.28
2023-05-16T16:52:41.554Z,97884.72
2023-05-16T16:55:10.957Z,97886.19
2023-05-16T16:57:39.469Z,97897.78
2023-05-16T17:00:11.621Z,97889.50
2023-05-16T17:02:40.368Z,97887.84
2023-05-16T17:05:11.861Z,97887.84
2023-05-16T17:07:40.593Z,97887.00
2023-05-16T17:10:10.611Z,97900.06
2023-05-16T17:12:46.230Z,97900.06
2023-05-16T17:15:14.657Z,97905.00
2023-05-16T17:17:43.664Z,97910.19
2023-05-16T17:20:14.278Z,97910.00
2023-05-16T17:22:43.059Z,97916.44
2023-05-16T17:25:12.308Z,97910.19
2023-05-16T17:27:41.413Z,97905.41
2023-05-16T17:30:12.003Z,97916.63
2023-05-16T17:32:40.825Z,97910.78
2023-05-16T17:35:09.901Z,97915.97
2023-05-16T17:37:39.937Z,97917.66
2023-05-16T17:40:12.024Z,97918.09
2023-05-16T17:42:40.624Z,97912.41
2023-05-16T17:45:12.190Z,97908.66
2023-05-16T17:47:41.442Z,97916.75
2023-05-16T17:50:12.045Z,97927.06
2023-05-16T17:52:41.992Z,97920.00
2023-05-16T17:55:11.411Z,97917.28
2023-05-16T17:57:40.038Z,97915.03
2023-05-16T18:00:10.530Z,97910.06
2023-05-16T18:02:39.471Z,97897.91
2023-05-16T18:05:10.568Z,97897.59
2023-05-16T18:07:39.045Z,97903.44
2023-05-16T18:10:10.622Z,97906.75
2023-05-16T18:12:39.258Z,97907.38
2023-05-16T18:15:10.720Z,97911.75
2023-05-16T18:17:39.227Z,97904.50
2023-05-16T18:20:11.096Z,97912.59
2023-05-16T18:22:39.744Z,97910.72
2023-05-16T18:25:11.684Z,97922.13
2023-05-16T18:27:40.158Z,97928.34
2023-05-16T18:30:10.922Z,97917.56
2023-05-16T18:32:39.634Z,97917.41
2023-05-16T18:35:09.431Z,97932.50
2023-05-16T18:37:38.676Z,97935.59
2023-05-16T18:40:10.855Z,97944.09
2023-05-16T18:42:39.616Z,97940.66
2023-05-16T18:45:09.801Z,97947.88
2023-05-16T18:47:38.318Z,97941.22
2023-05-16T18:50:08.496Z,97939.53
2023-05-16T18:52:37.050Z,97938.72
2023-05-16T18:55:06.327Z,97939.94
2023-05-16T18:57:36.183Z,97937.88
2023-05-16T19:00:06.105Z,97943.09
2023-05-16T19:05:10.671Z,97961.72
2023-05-16T19:07:39.492Z,97960.84
2023-05-16T19:10:09.776Z,97967.31
2023-05-16T19:12:39.701Z,97964.41
2023-05-16T19:15:10.624Z,97970.63
2023-05-16T19:17:41.880Z,97966.09
2023-05-16T19:20:11.230Z,97960.72
2023-05-16T19:22:39.743Z,97952.63
2023-05-16T19:25:09.493Z,97939.38
2023-05-16T19:27:39.340Z,97929.44
2023-05-16T19:30:10.030Z,97939.19
2023-05-16T19:32:38.804Z,97950.13
2023-05-16T19:35:08.092Z,97963.41
2023-05-16T19:37:36.612Z,97961.53
2023-05-16T19:40:05.477Z,97956.97
2023-05-16T19:42:34.242Z,97954.28
2023-05-16T19:45:04.214Z,97947.03
2023-05-16T19:47:32.763Z,97955.94
2023-05-16T19:50:02.536Z,97953.25
2023-05-16T19:52:31.167Z,97950.56
2023-05-16T19:54:59.886Z,97944.34
2023-05-16T19:57:28.432Z,97944.34
2023-05-16T19:59:56.903Z,97954.13
2023-05-16T20:02:27.072Z,97948.72
2023-05-16T20:04:55.968Z,97942.50
2023-05-16T20:07:24.479Z,97941.47
2023-05-16T20:09:52.919Z,97956.59
2023-05-16T20:12:22.216Z,97954.53
2023-05-16T20:14:51.802Z,97954.72
2023-05-16T20:17:20.577Z,97960.97
2023-05-16T20:19:50.653Z,97959.28
2023-05-16T20:22:22.427Z,97969.22
2023-05-16T20:24:51.073Z,97959.28
2023-05-16T20:27:21.719Z,97951.22
2023-05-16T20:29:52.485Z,97947.69
2023-05-16T20:32:20.960Z,97944.19
2023-05-16T20:34:50.838Z,97938.56
2023-05-16T20:37:19.429Z,97931.38
2023-05-16T20:39:47.844Z,97932.38
2023-05-16T20:42:16.364Z,97925.97
2023-05-16T20:44:45.061Z,97925.97
2023-05-16T20:47:13.495Z,97927.81
2023-05-16T20:49:42.044Z,97921.59
2023-05-16T20:52:12.126Z,97925.97
2023-05-16T20:54:42.010Z,97911.66
2023-05-16T20:57:10.504Z,97917.91
2023-05-16T20:59:38.994Z,97918.72
2023-05-16T21:02:12.331Z,97918.91
2023-05-16T21:04:40.944Z,97913.53
2023-05-16T21:07:11.629Z,97919.72
2023-05-16T21:09:41.504Z,97925.97
2023-05-16T21:12:10.207Z,97924.28
2023-05-16T21:14:38.838Z,97916.22
2023-05-16T21:17:07.396Z,97926.97
2023-05-16T21:19:37.019Z,97908.16
2023-05-16T21:22:05.929Z,97914.34
2023-05-16T21:24:35.658Z,97910.84
2023-05-16T21:27:06.323Z,97904.44
2023-05-16T21:29:35.126Z,97903.59
2023-05-16T21:32:03.903Z,97899.06
2023-05-16T21:34:32.401Z,97899.06
2023-05-16T21:37:00.900Z,97892.00
2023-05-16T21:39:29.574Z,97878.53
2023-05-16T21:41:58.103Z,97866.75
2023-05-16T21:44:28.032Z,97865.06
2023-05-16T21:46:56.570Z,97866.13
2023-05-16T21:49:25.279Z,97865.91
2023-05-16T21:51:53.838Z,97864.06
2023-05-16T21:54:22.313Z,97861.38
2023-05-16T21:56:50.983Z,97856.81
2023-05-16T21:59:19.455Z,97863.03
2023-05-16T22:01:51.673Z,97856.00
2023-05-16T22:04:20.312Z,97855.13
2023-05-16T22:06:48.899Z,97861.56
2023-05-16T22:09:17.551Z,97854.31
2023-05-16T22:11:46.044Z,97861.56
2023-05-16T22:14:14.718Z,97857.00
2023-05-16T22:16:43.165Z,97855.13
2023-05-16T22:19:12.991Z,97854.31
2023-05-16T22:21:41.648Z,97856.00
2023-05-16T22:24:10.130Z,97856.00
2023-05-16T22:26:38.666Z,97854.31
2023-05-16T22:29:10.381Z,97855.13
2023-05-16T22:31:38.959Z,97866.13
2023-05-16T22:34:07.721Z,97854.31
2023-05-16T22:36:37.595Z,97859.69
2023-05-16T22:39:06.649Z,97865.91
2023-05-16T22:41:35.074Z,97873.16
2023-05-16T22:44:03.753Z,97875.84
2023-05-16T22:46:32.608Z,97868.81
2023-05-16T22:49:01.062Z,97880.22
2023-05-16T22:51:29.591Z,97876.66
2023-05-16T22:53:59.370Z,97874.84
2023-05-16T22:56:27.976Z,97874.84
2023-05-16T22:58:56.404Z,97880.41
2023-05-16T23:01:24.973Z,97886.59
2023-05-16T23:03:53.532Z,97886.59
2023-05-16T23:06:21.910Z,97883.91
2023-05-16T23:08:50.402Z,97892.81
2023-05-16T23:11:20.365Z,97892.00
2023-05-16T23:13:49.146Z,97885.59
2023-05-16T23:16:17.567Z,97868.81
2023-05-16T23:18:46.167Z,97866.94
2023-05-16T23:21:17.030Z,97885.78
2023-05-16T23:23:45.609Z,97916.22
2023-05-16T23:26:14.094Z,97917.91
2023-05-16T23:28:43.988Z,97916.03
2023-05-16T23:31:12.437Z,97907.13
2023-05-16T23:33:40.869Z,97909.81
2023-05-16T23:36:09.753Z,97904.44
2023-05-16T23:38:38.516Z,97904.44
2023-05-16T23:41:07.018Z,97920.59
2023-05-16T23:43:35.534Z,97909.81
2023-05-16T23:46:05.412Z,97917.69
2023-05-16T23:48:36.342Z,97920.59
2023-05-16T23:51:07.566Z,97923.28
2023-05-16T23:53:36.387Z,97922.44
2023-05-16T23:56:05.090Z,97921.41
2023-05-16T23:58:33.759Z,97921.41
